createdAt,value
2023-03-03T00:00:55.875Z,2.30
2023-03-03T00:03:24.736Z,2.20
2023-03-03T00:05:52.547Z,2.30
2023-03-03T00:08:20.614Z,2.30
2023-03-03T00:10:47.610Z,2.30
2023-03-03T00:13:20.082Z,2.30
2023-03-03T00:15:47.420Z,2.30
2023-03-03T00:18:35.269Z,2.20
2023-03-03T00:21:03.905Z,2.10
2023-03-03T00:23:30.724Z,2.00
2023-03-03T00:25:58.246Z,2.10
2023-03-03T00:28:40.969Z,2.10
2023-03-03T00:31:17.213Z,2.20
2023-03-03T00:33:50.584Z,2.20
2023-03-03T00:36:21.269Z,2.20
2023-03-03T00:38:49.253Z,2.20
2023-03-03T00:41:37.426Z,2.20
2023-03-03T00:44:23.993Z,2.10
2023-03-03T00:46:50.676Z,2.10
2023-03-03T00:49:26.496Z,2.10
2023-03-03T00:51:54.313Z,2.10
2023-03-03T00:54:21.088Z,2.10
2023-03-03T00:56:47.714Z,2.10
2023-03-03T00:59:14.690Z,2.10
2023-03-03T01:01:41.388Z,2.10
2023-03-03T01:04:08.621Z,1.90
2023-03-03T01:06:35.768Z,2.00
2023-03-03T01:09:02.534Z,2.00
2023-03-03T01:11:29.372Z,2.10
2023-03-03T01:13:56.716Z,2.10
2023-03-03T01:16:23.448Z,2.10
2023-03-03T01:18:50.670Z,2.10
2023-03-03T01:21:17.383Z,2.10
2023-03-03T01:23:44.092Z,2.10
2023-03-03T01:26:10.946Z,2.20
2023-03-03T01:28:38.892Z,2.20
2023-03-03T01:31:06.285Z,2.20
2023-03-03T01:33:35.331Z,2.10
2023-03-03T01:36:02.724Z,2.00
2023-03-03T01:38:29.762Z,1.90
2023-03-03T01:40:59.384Z,2.00
2023-03-03T01:43:31.113Z,2.00
2023-03-03T01:45:57.859Z,2.00
2023-03-03T01:48:36.519Z,1.90
2023-03-03T01:51:17.442Z,1.90
2023-03-03T01:53:51.503Z,1.90
2023-03-03T01:56:18.554Z,1.80
2023-03-03T01:59:01.388Z,1.70
2023-03-03T02:01:29.795Z,1.70
2023-03-03T02:03:59.086Z,1.80
2023-03-03T02:06:32.226Z,1.80
2023-03-03T02:09:09.663Z,1.60
2023-03-03T02:11:40.342Z,1.70
2023-03-03T02:14:07.150Z,1.60
2023-03-03T02:16:34.020Z,1.60
2023-03-03T02:19:00.886Z,1.70
2023-03-03T02:21:29.390Z,1.60
2023-03-03T02:24:03.285Z,1.60
2023-03-03T02:26:35.700Z,1.40
2023-03-03T02:29:07.123Z,1.50
2023-03-03T02:31:34.002Z,1.50
2023-03-03T02:34:01.207Z,1.50
2023-03-03T02:36:32.722Z,1.30
2023-03-03T02:39:08.904Z,1.30
2023-03-03T02:41:54.056Z,1.30
2023-03-03T02:44:24.919Z,1.20
2023-03-03T02:46:52.893Z,1.10
2023-03-03T02:49:23.372Z,1.20
2023-03-03T02:51:50.909Z,1.30
2023-03-03T02:54:20.589Z,1.40
2023-03-03T02:56:47.490Z,1.40
2023-03-03T02:59:14.784Z,1.30
2023-03-03T03:01:46.985Z,1.30
2023-03-03T03:04:19.603Z,1.40
2023-03-03T03:06:49.820Z,1.40
2023-03-03T03:09:19.161Z,1.40
2023-03-03T03:11:47.520Z,1.40
2023-03-03T03:14:16.903Z,1.40
2023-03-03T03:16:44.215Z,1.20
2023-03-03T03:19:11.100Z,1.30
2023-03-03T03:21:38.826Z,1.30
2023-03-03T03:24:07.418Z,1.20
2023-03-03T03:26:36.949Z,1.30
2023-03-03T03:29:03.684Z,1.30
2023-03-03T03:31:31.217Z,1.20
2023-03-03T03:33:58.000Z,1.20
2023-03-03T03:36:24.848Z,1.20
2023-03-03T03:38:52.395Z,1.30
2023-03-03T03:41:19.189Z,1.30
2023-03-03T03:43:46.270Z,1.30
2023-03-03T03:46:14.584Z,1.20
2023-03-03T03:48:41.350Z,1.20
2023-03-03T03:51:12.208Z,1.20
2023-03-03T03:53:39.945Z,1.20
2023-03-03T03:56:07.080Z,1.10
2023-03-03T03:58:33.902Z,1.20
2023-03-03T04:01:06.436Z,1.10
2023-03-03T04:03:35.949Z,1.00
2023-03-03T04:06:06.184Z,1.10
2023-03-03T04:08:33.975Z,1.10
2023-03-03T04:11:01.474Z,1.10
2023-03-03T04:13:31.816Z,1.10
2023-03-03T04:15:59.631Z,1.20
2023-03-03T04:18:26.747Z,1.20
2023-03-03T04:20:54.633Z,1.30
2023-03-03T04:23:21.791Z,1.20
2023-03-03T04:25:49.751Z,1.10
2023-03-03T04:28:17.980Z,1.00
2023-03-03T04:30:45.772Z,1.00
2023-03-03T04:33:14.998Z,1.10
2023-03-03T04:35:41.728Z,1.10
2023-03-03T04:38:08.460Z,1.10
2023-03-03T04:40:36.166Z,1.10
2023-03-03T04:43:04.190Z,1.20
2023-03-03T04:45:31.181Z,1.30
2023-03-03T04:47:58.276Z,1.20
2023-03-03T04:50:25.103Z,1.10
2023-03-03T04:52:53.524Z,1.10
2023-03-03T04:55:20.259Z,1.10
2023-03-03T04:57:48.118Z,1.10
2023-03-03T05:00:15.166Z,1.10
2023-03-03T05:02:42.100Z,1.10
2023-03-03T05:05:10.615Z,1.10
2023-03-03T05:07:37.313Z,1.10
2023-03-03T05:10:04.227Z,1.00
2023-03-03T05:12:30.904Z,1.00
2023-03-03T05:14:57.567Z,1.00
2023-03-03T05:17:24.209Z,1.00
2023-03-03T05:19:50.954Z,1.00
2023-03-03T05:22:18.195Z,0.90
2023-03-03T05:24:48.914Z,1.00
2023-03-03T05:27:16.659Z,1.00
2023-03-03T05:29:43.441Z,1.00
2023-03-03T05:32:10.208Z,0.90
2023-03-03T05:34:37.790Z,0.80
2023-03-03T05:37:06.625Z,1.00
2023-03-03T05:39:34.634Z,0.90
2023-03-03T05:42:01.840Z,0.70
2023-03-03T05:44:28.671Z,0.80
2023-03-03T05:46:57.606Z,0.80
2023-03-03T05:49:24.954Z,0.80
2023-03-03T05:51:51.821Z,0.80
2023-03-03T05:54:18.516Z,0.80
2023-03-03T05:56:45.312Z,0.90
2023-03-03T05:59:12.009Z,0.90
2023-03-03T06:01:38.809Z,0.90
2023-03-03T06:04:05.511Z,0.90
2023-03-03T06:06:32.353Z,0.80
2023-03-03T06:08:59.006Z,0.90
2023-03-03T06:11:25.673Z,0.80
2023-03-03T06:13:52.319Z,0.90
2023-03-03T06:16:19.401Z,0.90
2023-03-03T06:18:46.227Z,0.90
2023-03-03T06:21:12.885Z,1.00
2023-03-03T06:23:39.559Z,1.10
2023-03-03T06:26:06.299Z,1.00
2023-03-03T06:28:32.969Z,1.10
2023-03-03T06:30:59.694Z,1.00
2023-03-03T06:33:26.398Z,1.00
2023-03-03T06:35:54.636Z,1.00
2023-03-03T06:38:21.795Z,1.00
2023-03-03T06:40:48.490Z,1.00
2023-03-03T06:43:15.179Z,1.00
2023-03-03T06:45:43.165Z,0.90
2023-03-03T06:48:09.818Z,1.00
2023-03-03T06:50:36.715Z,1.10
2023-03-03T06:53:12.621Z,1.10
2023-03-03T06:55:39.829Z,1.00
2023-03-03T06:58:18.400Z,1.00
2023-03-03T07:00:52.636Z,1.00
2023-03-03T07:03:29.395Z,1.10
2023-03-03T07:05:56.247Z,1.00
2023-03-03T07:08:24.997Z,1.00
2023-03-03T07:10:52.688Z,1.10
2023-03-03T07:13:28.291Z,1.10
2023-03-03T07:15:58.919Z,1.00
2023-03-03T07:18:50.927Z,1.00
2023-03-03T07:21:21.986Z,1.00
2023-03-03T07:23:50.572Z,1.20
2023-03-03T07:26:22.837Z,1.20
2023-03-03T07:29:01.216Z,1.20
2023-03-03T07:31:40.852Z,1.30
2023-03-03T07:34:21.735Z,1.20
2023-03-03T07:36:55.680Z,1.30
2023-03-03T07:39:31.121Z,1.10
2023-03-03T07:42:19.285Z,1.20
2023-03-03T07:44:52.299Z,1.00
2023-03-03T07:47:25.924Z,1.00
2023-03-03T07:49:55.894Z,0.90
2023-03-03T07:52:38.247Z,1.00
2023-03-03T07:55:23.162Z,1.00
2023-03-03T07:57:52.802Z,1.10
2023-03-03T08:00:28.557Z,1.10
2023-03-03T08:02:59.886Z,1.20
2023-03-03T08:05:36.148Z,1.30
2023-03-03T08:08:21.758Z,1.40
2023-03-03T08:10:50.126Z,1.50
2023-03-03T08:13:20.248Z,1.60
2023-03-03T08:15:50.472Z,1.40
2023-03-03T08:18:32.954Z,1.40
2023-03-03T08:21:07.435Z,1.40
2023-03-03T08:23:34.138Z,1.40
2023-03-03T08:26:00.760Z,1.40
2023-03-03T08:28:27.499Z,1.50
2023-03-03T08:31:05.533Z,1.50
2023-03-03T08:33:35.794Z,1.60
2023-03-03T08:36:03.032Z,1.70
2023-03-03T08:38:29.709Z,1.70
2023-03-03T08:40:56.394Z,1.80
2023-03-03T08:43:24.595Z,1.80
2023-03-03T08:45:53.634Z,1.90
2023-03-03T08:48:21.232Z,1.70
2023-03-03T08:50:48.107Z,1.80
2023-03-03T08:53:15.318Z,1.90
2023-03-03T08:55:43.052Z,1.80
2023-03-03T08:58:09.826Z,1.60
2023-03-03T09:00:36.913Z,1.70
2023-03-03T09:03:03.787Z,1.90
2023-03-03T09:05:31.419Z,1.90
2023-03-03T09:07:58.208Z,1.80
2023-03-03T09:10:30.653Z,1.70
2023-03-03T09:13:01.370Z,1.90
2023-03-03T09:15:37.282Z,2.00
2023-03-03T09:18:16.579Z,2.30
2023-03-03T09:20:51.438Z,2.50
2023-03-03T09:23:23.950Z,2.60
2023-03-03T09:25:51.507Z,2.70
2023-03-03T09:28:30.279Z,2.70
2023-03-03T09:30:59.924Z,2.70
2023-03-03T09:33:42.949Z,2.80
2023-03-03T09:36:27.924Z,2.80
2023-03-03T09:38:56.773Z,2.90
2023-03-03T09:41:43.206Z,2.60
2023-03-03T09:44:45.734Z,2.20
2023-03-03T09:47:31.411Z,2.10
2023-03-03T09:50:18.577Z,2.30
2023-03-03T09:52:47.974Z,2.30
2023-03-03T09:55:39.325Z,2.20
2023-03-03T09:58:24.833Z,2.10
2023-03-03T10:01:15.800Z,2.50
2023-03-03T10:04:13.434Z,2.60
2023-03-03T10:06:49.585Z,2.90
2023-03-03T10:09:34.856Z,2.90
2023-03-03T10:12:25.072Z,2.90
2023-03-03T10:14:51.802Z,3.10
2023-03-03T10:17:46.521Z,3.20
2023-03-03T10:20:25.532Z,3.40
2023-03-03T10:23:15.190Z,3.30
2023-03-03T10:26:03.848Z,3.30
2023-03-03T10:28:49.017Z,3.30
2023-03-03T10:31:53.406Z,2.80
2023-03-03T10:34:32.168Z,2.40
2023-03-03T10:37:46.330Z,2.60
2023-03-03T10:40:38.552Z,2.90
2023-03-03T10:43:05.224Z,3.00
2023-03-03T10:46:07.054Z,3.20
2023-03-03T10:49:02.362Z,2.90
2023-03-03T10:51:55.327Z,3.10
2023-03-03T10:54:49.751Z,3.30
2023-03-03T10:57:41.544Z,3.10
2023-03-03T11:00:16.548Z,3.20
2023-03-03T11:03:20.963Z,2.90
2023-03-03T11:05:50.805Z,3.30
2023-03-03T11:08:24.414Z,3.60
2023-03-03T11:11:23.153Z,3.50
2023-03-03T11:14:13.456Z,3.60
2023-03-03T11:16:52.682Z,3.70
2023-03-03T11:19:40.272Z,3.80
2023-03-03T11:22:33.548Z,3.90
2023-03-03T11:25:09.131Z,3.90
2023-03-03T11:27:53.889Z,4.00
2023-03-03T11:30:41.891Z,4.00
2023-03-03T11:33:45.096Z,4.00
2023-03-03T11:36:27.997Z,4.20
2023-03-03T11:39:05.421Z,4.20
2023-03-03T11:41:37.661Z,4.50
2023-03-03T11:44:17.202Z,4.70
2023-03-03T11:47:00.547Z,5.10
2023-03-03T11:49:37.498Z,5.00
2023-03-03T11:52:26.204Z,5.00
2023-03-03T11:55:04.921Z,5.30
2023-03-03T11:57:52.855Z,4.50
2023-03-03T12:00:28.880Z,4.80
2023-03-03T12:02:58.379Z,4.90
2023-03-03T12:05:45.756Z,5.10
2023-03-03T12:08:21.409Z,4.90
2023-03-03T12:11:07.654Z,5.00
2023-03-03T12:13:34.890Z,4.80
2023-03-03T12:16:12.840Z,4.70
2023-03-03T12:18:49.083Z,4.90
2023-03-03T12:21:18.571Z,5.00
2023-03-03T12:24:16.910Z,5.30
2023-03-03T12:27:10.532Z,5.30
2023-03-03T12:29:49.532Z,5.30
2023-03-03T12:32:32.553Z,5.20
2023-03-03T12:35:44.006Z,5.50
2023-03-03T12:38:40.600Z,5.80
2023-03-03T12:41:30.101Z,6.10
2023-03-03T12:44:13.249Z,6.10
2023-03-03T12:46:52.633Z,5.80
2023-03-03T12:49:20.134Z,6.20
2023-03-03T12:52:16.156Z,6.30
2023-03-03T12:55:19.848Z,6.40
2023-03-03T12:58:02.823Z,6.80
2023-03-03T13:00:51.905Z,8.10
2023-03-03T13:03:55.765Z,8.40
2023-03-03T13:06:34.881Z,7.80
2023-03-03T13:09:34.441Z,7.00
2023-03-03T13:12:41.864Z,7.00
2023-03-03T13:15:32.789Z,6.60
2023-03-03T13:18:29.719Z,6.60
2023-03-03T13:21:10.796Z,6.60
2023-03-03T13:23:56.412Z,6.30
2023-03-03T13:26:36.254Z,6.50
2023-03-03T13:29:15.915Z,6.80
2023-03-03T13:31:49.531Z,6.90
2023-03-03T13:34:56.793Z,6.40
2023-03-03T13:37:30.789Z,6.30
2023-03-03T13:40:08.542Z,6.00
2023-03-03T13:42:43.828Z,6.30
2023-03-03T13:45:27.613Z,6.30
2023-03-03T13:48:18.342Z,5.90
2023-03-03T13:50:56.484Z,5.90
2023-03-03T13:53:23.171Z,6.10
2023-03-03T13:56:05.478Z,6.20
2023-03-03T13:58:35.380Z,6.20
2023-03-03T14:01:14.683Z,6.10
2023-03-03T14:03:50.696Z,6.10
2023-03-03T14:06:22.656Z,6.00
2023-03-03T14:08:58.372Z,6.10
2023-03-03T14:11:45.928Z,6.10
2023-03-03T14:14:28.647Z,6.10
2023-03-03T14:17:08.447Z,5.90
2023-03-03T14:19:40.037Z,5.70
2023-03-03T14:22:25.346Z,5.50
2023-03-03T14:25:02.594Z,5.40
2023-03-03T14:27:53.198Z,5.50
2023-03-03T14:30:23.014Z,5.10
2023-03-03T14:33:10.158Z,5.00
2023-03-03T14:35:42.214Z,4.90
2023-03-03T14:38:08.875Z,5.30
2023-03-03T14:40:42.782Z,5.50
2023-03-03T14:43:36.592Z,5.80
2023-03-03T14:46:29.167Z,6.80
2023-03-03T14:48:58.897Z,6.60
2023-03-03T14:51:44.289Z,6.30
2023-03-03T14:54:22.315Z,6.00
2023-03-03T14:57:15.197Z,5.90
2023-03-03T14:59:55.441Z,6.10
2023-03-03T15:02:30.526Z,6.60
2023-03-03T15:05:13.295Z,6.90
2023-03-03T15:07:40.411Z,7.50
2023-03-03T15:10:07.898Z,8.20
2023-03-03T15:12:40.866Z,8.50
2023-03-03T15:15:11.631Z,8.80
2023-03-03T15:17:54.192Z,9.10
2023-03-03T15:20:46.053Z,9.20
2023-03-03T15:23:42.000Z,8.80
2023-03-03T15:26:27.147Z,8.30
2023-03-03T15:29:24.860Z,8.30
2023-03-03T15:32:18.303Z,8.60
2023-03-03T15:34:51.806Z,8.60
2023-03-03T15:37:27.210Z,8.70
2023-03-03T15:40:12.453Z,8.50
2023-03-03T15:42:52.785Z,8.20
2023-03-03T15:45:50.053Z,8.30
2023-03-03T15:48:28.808Z,8.20
2023-03-03T15:51:13.341Z,8.30
2023-03-03T15:54:17.698Z,8.20
2023-03-03T15:56:51.324Z,7.90
2023-03-03T15:59:26.980Z,7.70
2023-03-03T16:02:00.352Z,7.60
2023-03-03T16:04:33.111Z,7.70
2023-03-03T16:07:02.734Z,7.60
2023-03-03T16:09:41.442Z,7.10
2023-03-03T16:12:34.218Z,7.10
2023-03-03T16:15:06.947Z,7.20
2023-03-03T16:17:47.908Z,6.90
2023-03-03T16:20:23.048Z,6.60
2023-03-03T16:23:11.839Z,6.70
2023-03-03T16:26:04.531Z,6.70
2023-03-03T16:28:36.739Z,6.70
2023-03-03T16:31:21.545Z,6.60
2023-03-03T16:34:14.527Z,6.40
2023-03-03T16:36:50.151Z,6.10
2023-03-03T16:39:39.823Z,5.80
2023-03-03T16:42:26.428Z,5.60
2023-03-03T16:44:55.929Z,5.30
2023-03-03T16:47:34.931Z,5.30
2023-03-03T16:50:29.593Z,5.20
2023-03-03T16:53:42.630Z,5.20
2023-03-03T16:56:20.024Z,5.10
2023-03-03T16:59:18.274Z,5.00
2023-03-03T17:02:03.969Z,4.80
2023-03-03T17:04:59.117Z,4.50
2023-03-03T17:07:36.010Z,4.50
2023-03-03T17:10:26.396Z,4.50
2023-03-03T17:13:07.099Z,4.40
2023-03-03T17:15:47.407Z,4.40
2023-03-03T17:18:24.881Z,4.40
2023-03-03T17:21:02.268Z,4.40
2023-03-03T17:23:54.656Z,4.50
2023-03-03T17:26:52.670Z,4.50
2023-03-03T17:29:31.020Z,4.60
2023-03-03T17:32:31.849Z,4.60
2023-03-03T17:35:35.933Z,4.60
2023-03-03T17:38:27.572Z,4.60
2023-03-03T17:41:23.964Z,4.60
2023-03-03T17:44:12.198Z,4.60
2023-03-03T17:46:51.512Z,4.60
2023-03-03T17:49:45.911Z,4.60
2023-03-03T17:52:33.960Z,4.60
2023-03-03T17:55:21.830Z,4.60
2023-03-03T17:58:05.849Z,4.50
2023-03-03T18:00:38.420Z,4.60
2023-03-03T18:03:15.879Z,4.60
2023-03-03T18:06:06.336Z,4.60
2023-03-03T18:09:14.070Z,4.60
2023-03-03T18:12:04.825Z,4.60
2023-03-03T18:14:55.153Z,4.60
2023-03-03T18:17:35.840Z,4.60
2023-03-03T18:20:40.191Z,4.60
2023-03-03T18:23:43.641Z,4.60
2023-03-03T18:26:29.680Z,4.60
2023-03-03T18:29:16.592Z,4.70
2023-03-03T18:31:52.187Z,4.70
2023-03-03T18:34:18.788Z,4.70
2023-03-03T18:36:55.725Z,4.70
2023-03-03T18:39:46.385Z,4.70
2023-03-03T18:42:16.093Z,4.60
2023-03-03T18:44:44.365Z,4.70
2023-03-03T18:47:11.901Z,4.70
2023-03-03T18:50:01.485Z,4.80
2023-03-03T18:52:33.715Z,4.80
2023-03-03T18:55:09.752Z,4.80
2023-03-03T18:57:38.268Z,4.80
2023-03-03T19:00:28.555Z,4.70
2023-03-03T19:02:58.826Z,4.70
2023-03-03T19:05:33.928Z,4.70
2023-03-03T19:08:23.436Z,4.70
2023-03-03T19:10:58.010Z,4.70
2023-03-03T19:13:41.212Z,4.70
2023-03-03T19:16:30.463Z,4.60
2023-03-03T19:19:04.441Z,4.60
2023-03-03T19:21:36.435Z,4.70
2023-03-03T19:24:05.819Z,4.60
2023-03-03T19:26:43.190Z,4.70
2023-03-03T19:29:18.782Z,4.70
2023-03-03T19:32:26.275Z,4.70
2023-03-03T19:35:03.371Z,4.70
2023-03-03T19:37:54.641Z,4.80
2023-03-03T19:40:43.208Z,4.80
2023-03-03T19:43:37.169Z,4.70
2023-03-03T19:46:30.400Z,4.80
2023-03-03T19:49:09.113Z,4.70
2023-03-03T19:51:45.157Z,4.70
2023-03-03T19:54:44.811Z,4.70
2023-03-03T19:57:26.308Z,4.70
2023-03-03T20:00:05.586Z,4.70
2023-03-03T20:03:23.818Z,4.70
2023-03-03T20:06:29.952Z,4.70
2023-03-03T20:09:22.752Z,4.70
2023-03-03T20:12:08.336Z,4.70
2023-03-03T20:14:46.065Z,4.70
2023-03-03T20:17:21.354Z,4.70
2023-03-03T20:20:00.357Z,4.70
2023-03-03T20:22:56.644Z,4.70
2023-03-03T20:25:55.342Z,4.70
2023-03-03T20:28:48.335Z,4.80
2023-03-03T20:31:21.016Z,4.80
2023-03-03T20:34:00.954Z,4.80
2023-03-03T20:36:55.123Z,4.80
2023-03-03T20:39:43.312Z,4.90
2023-03-03T20:42:33.096Z,4.90
2023-03-03T20:45:10.774Z,4.90
2023-03-03T20:47:54.540Z,4.90
2023-03-03T20:50:46.093Z,5.00
2023-03-03T20:53:36.259Z,5.00
2023-03-03T20:56:25.066Z,5.00
2023-03-03T20:59:17.408Z,5.00
2023-03-03T21:02:01.573Z,5.00
2023-03-03T21:04:33.644Z,5.00
2023-03-03T21:07:01.599Z,5.00
2023-03-03T21:09:38.797Z,5.00
2023-03-03T21:12:31.389Z,5.00
2023-03-03T21:15:04.012Z,5.00
2023-03-03T21:17:31.669Z,5.00
2023-03-03T21:20:18.345Z,5.10
2023-03-03T21:22:45.539Z,5.10
2023-03-03T21:25:33.015Z,5.10
2023-03-03T21:28:17.895Z,5.20
2023-03-03T21:31:04.902Z,5.20
2023-03-03T21:33:57.024Z,5.20
2023-03-03T21:36:23.800Z,5.20
2023-03-03T21:38:52.953Z,5.20
2023-03-03T21:41:20.953Z,5.20
2023-03-03T21:43:50.176Z,5.20
2023-03-03T21:46:23.117Z,5.20
2023-03-03T21:48:51.444Z,5.20
2023-03-03T21:51:20.259Z,5.20
2023-03-03T21:53:47.662Z,5.10
2023-03-03T21:56:14.478Z,5.20
2023-03-03T21:58:41.949Z,5.20
2023-03-03T22:01:09.251Z,5.20
2023-03-03T22:03:36.993Z,5.20
2023-03-03T22:06:03.912Z,5.30
2023-03-03T22:08:30.837Z,5.20
2023-03-03T22:10:57.517Z,5.10
2023-03-03T22:13:26.137Z,5.10
2023-03-03T22:15:53.733Z,5.10
2023-03-03T22:18:21.575Z,5.10
2023-03-03T22:20:48.925Z,5.20
2023-03-03T22:23:16.293Z,5.20
2023-03-03T22:25:43.092Z,5.10
2023-03-03T22:28:09.769Z,5.10
2023-03-03T22:30:36.778Z,5.20
2023-03-03T22:33:03.984Z,5.10
2023-03-03T22:35:31.049Z,5.20
2023-03-03T22:37:57.995Z,5.20
2023-03-03T22:40:24.696Z,5.10
2023-03-03T22:42:51.745Z,5.10
2023-03-03T22:45:18.656Z,5.10
2023-03-03T22:47:45.539Z,5.10
2023-03-03T22:50:12.989Z,5.10
2023-03-03T22:52:39.754Z,5.10
2023-03-03T22:55:07.134Z,5.10
2023-03-03T22:57:34.358Z,5.10
2023-03-03T23:00:02.504Z,5.10
2023-03-03T23:02:29.852Z,5.10
2023-03-03T23:05:01.657Z,5.10
2023-03-03T23:07:29.249Z,5.20
2023-03-03T23:09:56.282Z,5.10
2023-03-03T23:12:23.770Z,5.10
2023-03-03T23:14:50.489Z,5.10
2023-03-03T23:17:17.433Z,5.00
2023-03-03T23:19:46.265Z,5.00
2023-03-03T23:22:13.656Z,5.00
2023-03-03T23:24:41.292Z,4.90
2023-03-03T23:27:11.722Z,4.90
2023-03-03T23:29:39.021Z,5.00
2023-03-03T23:32:06.101Z,4.90
2023-03-03T23:34:32.910Z,5.00
2023-03-03T23:36:59.585Z,4.90
2023-03-03T23:39:26.262Z,5.00
2023-03-03T23:41:52.973Z,4.90
2023-03-03T23:44:19.708Z,5.00
2023-03-03T23:46:46.436Z,4.90
2023-03-03T23:49:13.207Z,4.90
2023-03-03T23:51:39.884Z,4.90
2023-03-03T23:54:06.664Z,5.00
2023-03-03T23:56:33.427Z,5.00
2023-03-03T23:59:00.158Z,5.00
